sensor_id;sensor_type;location;lat;lon;timestamp;P1;durP1;ratioP1;P2;durP2;ratioP2
25915;SDS011;13719;48.188;11.618;2023-02-28T00:01:26;0.40;;;0.40;;
25915;SDS011;13719;48.188;11.618;2023-02-28T00:03:55;0.30;;;0.30;;
25915;SDS011;13719;48.188;11.618;2023-02-28T00:06:24;0.40;;;0.40;;
25915;SDS011;13719;48.188;11.618;2023-02-28T00:08:52;1.00;;;1.00;;
25915;SDS011;13719;48.188;11.618;2023-02-28T00:11:20;0.68;;;0.68;;
25915;SDS011;13719;48.188;11.618;2023-02-28T00:13:49;0.30;;;0.30;;
25915;SDS011;13719;48.188;11.618;2023-02-28T00:16:19;0.20;;;0.20;;
25915;SDS011;13719;48.188;11.618;2023-02-28T00:18:47;0.50;;;0.50;;
25915;SDS011;13719;48.188;11.618;2023-02-28T00:21:16;0.30;;;0.30;;
25915;SDS011;13719;48.188;11.618;2023-02-28T00:23:45;0.32;;;0.32;;
25915;SDS011;13719;48.188;11.618;2023-02-28T00:26:13;0.30;;;0.30;;
25915;SDS011;13719;48.188;11.618;2023-02-28T00:28:41;0.22;;;0.22;;
25915;SDS011;13719;48.188;11.618;2023-02-28T00:31:10;0.20;;;0.20;;
25915;SDS011;13719;48.188;11.618;2023-02-28T00:33:39;0.40;;;0.40;;
25915;SDS011;13719;48.188;11.618;2023-02-28T00:36:09;0.40;;;0.40;;
25915;SDS011;13719;48.188;11.618;2023-02-28T00:38:38;4.38;;;0.40;;
25915;SDS011;13719;48.188;11.618;2023-02-28T00:41:06;0.60;;;0.55;;
25915;SDS011;13719;48.188;11.618;2023-02-28T00:43:35;0.32;;;0.32;;
25915;SDS011;13719;48.188;11.618;2023-02-28T00:46:04;0.30;;;0.30;;
25915;SDS011;13719;48.188;11.618;2023-02-28T00:48:32;0.30;;;0.30;;
25915;SDS011;13719;48.188;11.618;2023-02-28T00:51:02;0.57;;;0.57;;
25915;SDS011;13719;48.188;11.618;2023-02-28T00:53:30;1.48;;;0.95;;
25915;SDS011;13719;48.188;11.618;2023-02-28T00:55:59;1.65;;;0.40;;
25915;SDS011;13719;48.188;11.618;2023-02-28T00:58:28;0.60;;;0.60;;
25915;SDS011;13719;48.188;11.618;2023-02-28T01:00:56;1.65;;;1.35;;
25915;SDS011;13719;48.188;11.618;2023-02-28T01:03:25;0.30;;;0.30;;
25915;SDS011;13719;48.188;11.618;2023-02-28T01:05:53;0.30;;;0.30;;
25915;SDS011;13719;48.188;11.618;2023-02-28T01:08:22;0.60;;;0.60;;
25915;SDS011;13719;48.188;11.618;2023-02-28T01:10:52;1.13;;;0.47;;
25915;SDS011;13719;48.188;11.618;2023-02-28T01:13:20;0.50;;;0.50;;
25915;SDS011;13719;48.188;11.618;2023-02-28T01:15:50;0.43;;;0.43;;
25915;SDS011;13719;48.188;11.618;2023-02-28T01:18:19;0.30;;;0.30;;
25915;SDS011;13719;48.188;11.618;2023-02-28T01:20:47;0.30;;;0.30;;
25915;SDS011;13719;48.188;11.618;2023-02-28T01:23:18;0.20;;;0.20;;
25915;SDS011;13719;48.188;11.618;2023-02-28T01:25:49;0.30;;;0.30;;
25915;SDS011;13719;48.188;11.618;2023-02-28T01:28:17;0.35;;;0.35;;
25915;SDS011;13719;48.188;11.618;2023-02-28T01:30:47;0.20;;;0.20;;
25915;SDS011;13719;48.188;11.618;2023-02-28T01:33:16;0.20;;;0.20;;
25915;SDS011;13719;48.188;11.618;2023-02-28T01:35:44;0.30;;;0.30;;
25915;SDS011;13719;48.188;11.618;2023-02-28T01:38:12;1.00;;;0.32;;
25915;SDS011;13719;48.188;11.618;2023-02-28T01:40:49;0.22;;;0.22;;
25915;SDS011;13719;48.188;11.618;2023-02-28T01:43:20;0.45;;;0.45;;
25915;SDS011;13719;48.188;11.618;2023-02-28T01:45:49;0.30;;;0.30;;
25915;SDS011;13719;48.188;11.618;2023-02-28T01:48:17;0.50;;;0.50;;
25915;SDS011;13719;48.188;11.618;2023-02-28T01:50:47;0.47;;;0.47;;
25915;SDS011;13719;48.188;11.618;2023-02-28T01:53:18;0.25;;;0.25;;
25915;SDS011;13719;48.188;11.618;2023-02-28T01:55:47;0.28;;;0.28;;
25915;SDS011;13719;48.188;11.618;2023-02-28T01:58:18;0.40;;;0.40;;
25915;SDS011;13719;48.188;11.618;2023-02-28T02:00:46;0.30;;;0.30;;
25915;SDS011;13719;48.188;11.618;2023-02-28T02:03:15;0.45;;;0.45;;
25915;SDS011;13719;48.188;11.618;2023-02-28T02:05:45;0.68;;;0.68;;
25915;SDS011;13719;48.188;11.618;2023-02-28T02:08:15;0.20;;;0.20;;
25915;SDS011;13719;48.188;11.618;2023-02-28T02:10:45;0.30;;;0.30;;
25915;SDS011;13719;48.188;11.618;2023-02-28T02:13:24;0.60;;;0.60;;
25915;SDS011;13719;48.188;11.618;2023-02-28T02:15:57;0.30;;;0.30;;
25915;SDS011;13719;48.188;11.618;2023-02-28T02:18:31;1.13;;;0.73;;
25915;SDS011;13719;48.188;11.618;2023-02-28T02:24:03;0.85;;;0.75;;
25915;SDS011;13719;48.188;11.618;2023-02-28T02:26:47;0.20;;;0.20;;
25915;SDS011;13719;48.188;11.618;2023-02-28T02:29:35;0.30;;;0.30;;
25915;SDS011;13719;48.188;11.618;2023-02-28T02:34:57;0.30;;;0.30;;
25915;SDS011;13719;48.188;11.618;2023-02-28T02:37:29;0.38;;;0.38;;
25915;SDS011;13719;48.188;11.618;2023-02-28T02:40:04;0.32;;;0.32;;
25915;SDS011;13719;48.188;11.618;2023-02-28T02:45:05;0.30;;;0.30;;
25915;SDS011;13719;48.188;11.618;2023-02-28T02:47:35;0.30;;;0.30;;
25915;SDS011;13719;48.188;11.618;2023-02-28T02:50:07;0.40;;;0.40;;
25915;SDS011;13719;48.188;11.618;2023-02-28T02:52:37;0.52;;;0.52;;
25915;SDS011;13719;48.188;11.618;2023-02-28T02:55:07;0.30;;;0.30;;
25915;SDS011;13719;48.188;11.618;2023-02-28T02:57:39;1.23;;;0.40;;
25915;SDS011;13719;48.188;11.618;2023-02-28T03:00:08;0.30;;;0.30;;
25915;SDS011;13719;48.188;11.618;2023-02-28T03:02:37;0.40;;;0.40;;
25915;SDS011;13719;48.188;11.618;2023-02-28T03:05:13;0.20;;;0.20;;
25915;SDS011;13719;48.188;11.618;2023-02-28T03:07:42;0.40;;;0.40;;
25915;SDS011;13719;48.188;11.618;2023-02-28T03:10:30;0.32;;;0.32;;
25915;SDS011;13719;48.188;11.618;2023-02-28T03:13:08;0.20;;;0.20;;
25915;SDS011;13719;48.188;11.618;2023-02-28T03:15:41;0.30;;;0.30;;
25915;SDS011;13719;48.188;11.618;2023-02-28T03:18:10;0.30;;;0.30;;
25915;SDS011;13719;48.188;11.618;2023-02-28T03:20:44;0.30;;;0.30;;
25915;SDS011;13719;48.188;11.618;2023-02-28T03:23:18;0.75;;;0.75;;
25915;SDS011;13719;48.188;11.618;2023-02-28T03:25:52;0.25;;;0.25;;
25915;SDS011;13719;48.188;11.618;2023-02-28T03:28:25;0.88;;;0.60;;
25915;SDS011;13719;48.188;11.618;2023-02-28T03:30:57;0.47;;;0.35;;
25915;SDS011;13719;48.188;11.618;2023-02-28T03:33:28;0.40;;;0.40;;
25915;SDS011;13719;48.188;11.618;2023-02-28T03:35:59;2.65;;;0.47;;
25915;SDS011;13719;48.188;11.618;2023-02-28T03:38:31;0.40;;;0.40;;
25915;SDS011;13719;48.188;11.618;2023-02-28T03:41:02;0.30;;;0.30;;
25915;SDS011;13719;48.188;11.618;2023-02-28T03:43:34;0.55;;;0.55;;
25915;SDS011;13719;48.188;11.618;2023-02-28T03:46:05;0.52;;;0.52;;
25915;SDS011;13719;48.188;11.618;2023-02-28T03:48:37;0.28;;;0.28;;
25915;SDS011;13719;48.188;11.618;2023-02-28T03:51:08;0.98;;;0.60;;
25915;SDS011;13719;48.188;11.618;2023-02-28T03:53:39;1.55;;;0.63;;
25915;SDS011;13719;48.188;11.618;2023-02-28T03:56:11;3.28;;;0.85;;
25915;SDS011;13719;48.188;11.618;2023-02-28T03:58:41;0.45;;;0.45;;
25915;SDS011;13719;48.188;11.618;2023-02-28T04:01:11;1.75;;;0.95;;
25915;SDS011;13719;48.188;11.618;2023-02-28T04:03:40;0.20;;;0.20;;
25915;SDS011;13719;48.188;11.618;2023-02-28T04:06:14;0.30;;;0.30;;
25915;SDS011;13719;48.188;11.618;2023-02-28T04:08:43;0.30;;;0.30;;
25915;SDS011;13719;48.188;11.618;2023-02-28T04:11:16;0.70;;;0.70;;
25915;SDS011;13719;48.188;11.618;2023-02-28T04:13:46;0.35;;;0.35;;
25915;SDS011;13719;48.188;11.618;2023-02-28T04:16:14;0.57;;;0.57;;
25915;SDS011;13719;48.188;11.618;2023-02-28T04:18:59;0.63;;;0.63;;
25915;SDS011;13719;48.188;11.618;2023-02-28T04:21:30;1.05;;;0.47;;
25915;SDS011;13719;48.188;11.618;2023-02-28T04:23:59;0.30;;;0.30;;
25915;SDS011;13719;48.188;11.618;2023-02-28T04:26:28;0.50;;;0.50;;
25915;SDS011;13719;48.188;11.618;2023-02-28T04:28:57;0.90;;;0.90;;
25915;SDS011;13719;48.188;11.618;2023-02-28T04:31:25;0.45;;;0.38;;
25915;SDS011;13719;48.188;11.618;2023-02-28T04:33:54;0.22;;;0.22;;
25915;SDS011;13719;48.188;11.618;2023-02-28T04:36:22;1.35;;;0.65;;
25915;SDS011;13719;48.188;11.618;2023-02-28T04:38:52;0.35;;;0.35;;
25915;SDS011;13719;48.188;11.618;2023-02-28T04:41:21;0.65;;;0.45;;
25915;SDS011;13719;48.188;11.618;2023-02-28T04:43:50;0.40;;;0.40;;
25915;SDS011;13719;48.188;11.618;2023-02-28T04:46:19;0.47;;;0.47;;
25915;SDS011;13719;48.188;11.618;2023-02-28T04:48:47;0.30;;;0.30;;
25915;SDS011;13719;48.188;11.618;2023-02-28T04:51:16;1.10;;;0.93;;
25915;SDS011;13719;48.188;11.618;2023-02-28T04:53:45;0.68;;;0.68;;
25915;SDS011;13719;48.188;11.618;2023-02-28T04:56:16;0.40;;;0.40;;
25915;SDS011;13719;48.188;11.618;2023-02-28T04:58:46;0.60;;;0.60;;
25915;SDS011;13719;48.188;11.618;2023-02-28T05:01:17;0.50;;;0.50;;
25915;SDS011;13719;48.188;11.618;2023-02-28T05:03:45;0.55;;;0.55;;
25915;SDS011;13719;48.188;11.618;2023-02-28T05:06:13;0.93;;;0.93;;
25915;SDS011;13719;48.188;11.618;2023-02-28T05:08:42;0.55;;;0.55;;
25915;SDS011;13719;48.188;11.618;2023-02-28T05:11:13;1.23;;;1.13;;
25915;SDS011;13719;48.188;11.618;2023-02-28T05:13:43;0.20;;;0.20;;
25915;SDS011;13719;48.188;11.618;2023-02-28T05:16:12;0.30;;;0.30;;
25915;SDS011;13719;48.188;11.618;2023-02-28T05:18:40;0.40;;;0.40;;
25915;SDS011;13719;48.188;11.618;2023-02-28T05:21:19;0.60;;;0.60;;
25915;SDS011;13719;48.188;11.618;2023-02-28T05:23:50;0.60;;;0.60;;
25915;SDS011;13719;48.188;11.618;2023-02-28T05:26:19;0.57;;;0.57;;
25915;SDS011;13719;48.188;11.618;2023-02-28T05:28:48;0.40;;;0.40;;
25915;SDS011;13719;48.188;11.618;2023-02-28T05:31:17;0.47;;;0.47;;
25915;SDS011;13719;48.188;11.618;2023-02-28T05:33:45;0.40;;;0.40;;
25915;SDS011;13719;48.188;11.618;2023-02-28T05:36:14;0.30;;;0.30;;
25915;SDS011;13719;48.188;11.618;2023-02-28T05:38:42;1.48;;;1.33;;
25915;SDS011;13719;48.188;11.618;2023-02-28T05:41:11;0.30;;;0.30;;
25915;SDS011;13719;48.188;11.618;2023-02-28T05:43:39;0.50;;;0.50;;
25915;SDS011;13719;48.188;11.618;2023-02-28T05:46:09;0.68;;;0.50;;
25915;SDS011;13719;48.188;11.618;2023-02-28T05:48:38;0.40;;;0.40;;
25915;SDS011;13719;48.188;11.618;2023-02-28T05:51:07;0.80;;;0.77;;
25915;SDS011;13719;48.188;11.618;2023-02-28T05:53:36;2.78;;;1.23;;
25915;SDS011;13719;48.188;11.618;2023-02-28T05:56:04;0.85;;;0.70;;
25915;SDS011;13719;48.188;11.618;2023-02-28T05:58:32;0.95;;;0.88;;
25915;SDS011;13719;48.188;11.618;2023-02-28T06:01:18;0.40;;;0.40;;
25915;SDS011;13719;48.188;11.618;2023-02-28T06:03:48;0.55;;;0.55;;
25915;SDS011;13719;48.188;11.618;2023-02-28T06:06:16;0.73;;;0.73;;
25915;SDS011;13719;48.188;11.618;2023-02-28T06:08:45;0.30;;;0.30;;
25915;SDS011;13719;48.188;11.618;2023-02-28T06:11:13;0.47;;;0.47;;
25915;SDS011;13719;48.188;11.618;2023-02-28T06:13:41;0.93;;;0.90;;
25915;SDS011;13719;48.188;11.618;2023-02-28T06:16:10;0.68;;;0.68;;
25915;SDS011;13719;48.188;11.618;2023-02-28T06:18:38;0.88;;;0.70;;
25915;SDS011;13719;48.188;11.618;2023-02-28T06:21:08;1.10;;;0.43;;
25915;SDS011;13719;48.188;11.618;2023-02-28T06:23:36;2.45;;;1.67;;
25915;SDS011;13719;48.188;11.618;2023-02-28T06:26:05;0.40;;;0.40;;
25915;SDS011;13719;48.188;11.618;2023-02-28T06:28:33;0.52;;;0.52;;
25915;SDS011;13719;48.188;11.618;2023-02-28T06:31:05;0.40;;;0.40;;
25915;SDS011;13719;48.188;11.618;2023-02-28T06:33:34;0.43;;;0.43;;
25915;SDS011;13719;48.188;11.618;2023-02-28T06:36:02;0.85;;;0.85;;
25915;SDS011;13719;48.188;11.618;2023-02-28T06:38:32;0.73;;;0.40;;
25915;SDS011;13719;48.188;11.618;2023-02-28T06:41:02;1.30;;;0.65;;
25915;SDS011;13719;48.188;11.618;2023-02-28T06:43:32;0.73;;;0.60;;
25915;SDS011;13719;48.188;11.618;2023-02-28T06:46:02;0.30;;;0.30;;
25915;SDS011;13719;48.188;11.618;2023-02-28T06:48:30;0.60;;;0.60;;
25915;SDS011;13719;48.188;11.618;2023-02-28T06:51:01;3.30;;;1.52;;
25915;SDS011;13719;48.188;11.618;2023-02-28T06:53:30;0.95;;;0.73;;
25915;SDS011;13719;48.188;11.618;2023-02-28T06:56:02;0.88;;;0.70;;
25915;SDS011;13719;48.188;11.618;2023-02-28T06:58:31;0.90;;;0.77;;
25915;SDS011;13719;48.188;11.618;2023-02-28T07:01:00;2.15;;;1.02;;
25915;SDS011;13719;48.188;11.618;2023-02-28T07:03:28;1.73;;;0.95;;
25915;SDS011;13719;48.188;11.618;2023-02-28T07:05:59;2.15;;;1.75;;
25915;SDS011;13719;48.188;11.618;2023-02-28T07:08:30;1.08;;;0.98;;
25915;SDS011;13719;48.188;11.618;2023-02-28T07:11:00;0.30;;;0.30;;
25915;SDS011;13719;48.188;11.618;2023-02-28T07:13:28;0.40;;;0.40;;
25915;SDS011;13719;48.188;11.618;2023-02-28T07:15:58;0.70;;;0.70;;
25915;SDS011;13719;48.188;11.618;2023-02-28T07:18:26;0.55;;;0.55;;
25915;SDS011;13719;48.188;11.618;2023-02-28T07:20:55;0.85;;;0.80;;
25915;SDS011;13719;48.188;11.618;2023-02-28T07:23:24;1.98;;;1.67;;
25915;SDS011;13719;48.188;11.618;2023-02-28T07:25:52;0.25;;;0.25;;
25915;SDS011;13719;48.188;11.618;2023-02-28T07:28:22;1.05;;;0.95;;
25915;SDS011;13719;48.188;11.618;2023-02-28T07:30:50;1.92;;;1.67;;
25915;SDS011;13719;48.188;11.618;2023-02-28T07:33:19;1.02;;;0.88;;
25915;SDS011;13719;48.188;11.618;2023-02-28T07:35:47;0.77;;;0.77;;
25915;SDS011;13719;48.188;11.618;2023-02-28T07:38:15;1.98;;;1.80;;
25915;SDS011;13719;48.188;11.618;2023-02-28T07:40:43;0.50;;;0.50;;
25915;SDS011;13719;48.188;11.618;2023-02-28T07:43:12;1.15;;;1.00;;
25915;SDS011;13719;48.188;11.618;2023-02-28T07:45:41;0.63;;;0.63;;
25915;SDS011;13719;48.188;11.618;2023-02-28T07:48:10;1.15;;;0.98;;
25915;SDS011;13719;48.188;11.618;2023-02-28T07:50:38;1.00;;;0.85;;
25915;SDS011;13719;48.188;11.618;2023-02-28T07:53:07;0.70;;;0.65;;
25915;SDS011;13719;48.188;11.618;2023-02-28T07:55:35;1.58;;;1.48;;
25915;SDS011;13719;48.188;11.618;2023-02-28T07:58:03;2.25;;;1.40;;
25915;SDS011;13719;48.188;11.618;2023-02-28T08:00:32;0.47;;;0.47;;
25915;SDS011;13719;48.188;11.618;2023-02-28T08:03:01;1.10;;;0.90;;
25915;SDS011;13719;48.188;11.618;2023-02-28T08:05:30;1.83;;;1.42;;
25915;SDS011;13719;48.188;11.618;2023-02-28T08:07:58;0.95;;;0.93;;
25915;SDS011;13719;48.188;11.618;2023-02-28T08:10:26;0.52;;;0.52;;
25915;SDS011;13719;48.188;11.618;2023-02-28T08:12:55;0.93;;;0.93;;
25915;SDS011;13719;48.188;11.618;2023-02-28T08:15:23;2.53;;;0.88;;
25915;SDS011;13719;48.188;11.618;2023-02-28T08:17:52;1.52;;;1.35;;
25915;SDS011;13719;48.188;11.618;2023-02-28T08:20:23;1.17;;;1.08;;
25915;SDS011;13719;48.188;11.618;2023-02-28T08:22:52;1.33;;;1.23;;
25915;SDS011;13719;48.188;11.618;2023-02-28T08:25:20;8.35;;;2.08;;
25915;SDS011;13719;48.188;11.618;2023-02-28T08:27:50;3.17;;;1.77;;
25915;SDS011;13719;48.188;11.618;2023-02-28T08:30:19;0.63;;;0.63;;
25915;SDS011;13719;48.188;11.618;2023-02-28T08:32:47;2.22;;;1.73;;
25915;SDS011;13719;48.188;11.618;2023-02-28T08:35:16;0.38;;;0.30;;
25915;SDS011;13719;48.188;11.618;2023-02-28T08:37:47;2.83;;;0.80;;
25915;SDS011;13719;48.188;11.618;2023-02-28T08:40:15;1.85;;;1.17;;
25915;SDS011;13719;48.188;11.618;2023-02-28T08:42:45;0.50;;;0.50;;
25915;SDS011;13719;48.188;11.618;2023-02-28T08:45:14;2.15;;;1.50;;
25915;SDS011;13719;48.188;11.618;2023-02-28T08:47:42;0.75;;;0.75;;
25915;SDS011;13719;48.188;11.618;2023-02-28T08:50:11;4.63;;;1.05;;
25915;SDS011;13719;48.188;11.618;2023-02-28T08:52:41;6.55;;;2.72;;
25915;SDS011;13719;48.188;11.618;2023-02-28T08:55:11;1.73;;;1.40;;
25915;SDS011;13719;48.188;11.618;2023-02-28T08:57:40;0.77;;;0.77;;
25915;SDS011;13719;48.188;11.618;2023-02-28T09:00:09;1.92;;;0.77;;
25915;SDS011;13719;48.188;11.618;2023-02-28T09:02:39;1.67;;;1.58;;
25915;SDS011;13719;48.188;11.618;2023-02-28T09:05:09;2.47;;;2.28;;
25915;SDS011;13719;48.188;11.618;2023-02-28T09:07:38;1.85;;;1.45;;
25915;SDS011;13719;48.188;11.618;2023-02-28T09:10:07;1.27;;;1.27;;
25915;SDS011;13719;48.188;11.618;2023-02-28T09:12:37;2.17;;;1.65;;
25915;SDS011;13719;48.188;11.618;2023-02-28T09:15:06;3.15;;;0.82;;
25915;SDS011;13719;48.188;11.618;2023-02-28T09:17:34;7.82;;;2.50;;
25915;SDS011;13719;48.188;11.618;2023-02-28T09:20:03;0.90;;;0.88;;
25915;SDS011;13719;48.188;11.618;2023-02-28T09:22:32;0.88;;;0.70;;
25915;SDS011;13719;48.188;11.618;2023-02-28T09:25:00;4.03;;;1.85;;
25915;SDS011;13719;48.188;11.618;2023-02-28T09:27:29;0.93;;;0.93;;
25915;SDS011;13719;48.188;11.618;2023-02-28T09:29:58;0.95;;;0.95;;
25915;SDS011;13719;48.188;11.618;2023-02-28T09:32:27;2.72;;;1.70;;
25915;SDS011;13719;48.188;11.618;2023-02-28T09:34:55;2.33;;;1.50;;
25915;SDS011;13719;48.188;11.618;2023-02-28T09:37:23;2.17;;;1.70;;
25915;SDS011;13719;48.188;11.618;2023-02-28T09:39:57;1.45;;;1.35;;
25915;SDS011;13719;48.188;11.618;2023-02-28T09:42:27;2.70;;;1.92;;
25915;SDS011;13719;48.188;11.618;2023-02-28T09:44:58;0.63;;;0.63;;
25915;SDS011;13719;48.188;11.618;2023-02-28T09:47:29;0.45;;;0.45;;
25915;SDS011;13719;48.188;11.618;2023-02-28T09:52:43;1.13;;;1.13;;
25915;SDS011;13719;48.188;11.618;2023-02-28T09:55:18;2.78;;;1.52;;
25915;SDS011;13719;48.188;11.618;2023-02-28T09:57:47;0.82;;;0.73;;
25915;SDS011;13719;48.188;11.618;2023-02-28T10:00:19;1.38;;;1.23;;
25915;SDS011;13719;48.188;11.618;2023-02-28T10:02:52;1.92;;;0.88;;
25915;SDS011;13719;48.188;11.618;2023-02-28T10:05:25;4.00;;;1.92;;
25915;SDS011;13719;48.188;11.618;2023-02-28T10:08:00;3.08;;;1.70;;
25915;SDS011;13719;48.188;11.618;2023-02-28T10:10:33;2.22;;;1.55;;
25915;SDS011;13719;48.188;11.618;2023-02-28T10:13:05;5.55;;;0.90;;
25915;SDS011;13719;48.188;11.618;2023-02-28T10:15:36;0.63;;;0.63;;
25915;SDS011;13719;48.188;11.618;2023-02-28T10:18:05;2.92;;;1.92;;
25915;SDS011;13719;48.188;11.618;2023-02-28T10:20:36;8.75;;;2.95;;
25915;SDS011;13719;48.188;11.618;2023-02-28T10:23:08;3.90;;;2.33;;
25915;SDS011;13719;48.188;11.618;2023-02-28T10:25:38;6.03;;;2.03;;
25915;SDS011;13719;48.188;11.618;2023-02-28T10:28:10;3.42;;;2.72;;
25915;SDS011;13719;48.188;11.618;2023-02-28T10:30:43;4.53;;;3.00;;
25915;SDS011;13719;48.188;11.618;2023-02-28T10:33:20;1.98;;;1.08;;
25915;SDS011;13719;48.188;11.618;2023-02-28T10:35:49;1.25;;;1.13;;
25915;SDS011;13719;48.188;11.618;2023-02-28T10:38:19;5.18;;;2.05;;
25915;SDS011;13719;48.188;11.618;2023-02-28T10:40:48;1.40;;;1.05;;
25915;SDS011;13719;48.188;11.618;2023-02-28T10:43:18;1.58;;;1.42;;
25915;SDS011;13719;48.188;11.618;2023-02-28T10:45:56;1.50;;;1.10;;
25915;SDS011;13719;48.188;11.618;2023-02-28T10:48:36;5.82;;;2.65;;
25915;SDS011;13719;48.188;11.618;2023-02-28T10:51:05;1.73;;;1.23;;
25915;SDS011;13719;48.188;11.618;2023-02-28T10:53:39;4.80;;;1.83;;
25915;SDS011;13719;48.188;11.618;2023-02-28T10:56:26;2.50;;;2.28;;
25915;SDS011;13719;48.188;11.618;2023-02-28T10:58:57;2.00;;;1.35;;
25915;SDS011;13719;48.188;11.618;2023-02-28T11:01:35;2.40;;;2.00;;
25915;SDS011;13719;48.188;11.618;2023-02-28T11:04:16;0.68;;;0.68;;
25915;SDS011;13719;48.188;11.618;2023-02-28T11:06:45;2.40;;;1.60;;
25915;SDS011;13719;48.188;11.618;2023-02-28T11:09:16;6.80;;;3.17;;
25915;SDS011;13719;48.188;11.618;2023-02-28T11:11:46;2.45;;;1.33;;
25915;SDS011;13719;48.188;11.618;2023-02-28T11:14:17;1.33;;;1.23;;
25915;SDS011;13719;48.188;11.618;2023-02-28T11:16:48;1.50;;;1.40;;
25915;SDS011;13719;48.188;11.618;2023-02-28T11:19:18;8.07;;;2.38;;
25915;SDS011;13719;48.188;11.618;2023-02-28T11:21:49;3.35;;;1.52;;
25915;SDS011;13719;48.188;11.618;2023-02-28T11:24:21;4.32;;;2.20;;
25915;SDS011;13719;48.188;11.618;2023-02-28T11:26:50;3.15;;;1.80;;
25915;SDS011;13719;48.188;11.618;2023-02-28T11:29:20;2.63;;;1.70;;
25915;SDS011;13719;48.188;11.618;2023-02-28T11:32:03;2.13;;;0.85;;
25915;SDS011;13719;48.188;11.618;2023-02-28T11:34:34;2.92;;;1.98;;
25915;SDS011;13719;48.188;11.618;2023-02-28T11:37:03;1.67;;;1.58;;
25915;SDS011;13719;48.188;11.618;2023-02-28T11:39:32;2.88;;;1.58;;
25915;SDS011;13719;48.188;11.618;2023-02-28T11:44:56;3.63;;;1.83;;
25915;SDS011;13719;48.188;11.618;2023-02-28T11:47:34;1.45;;;1.35;;
25915;SDS011;13719;48.188;11.618;2023-02-28T11:50:16;3.80;;;1.33;;
25915;SDS011;13719;48.188;11.618;2023-02-28T11:52:48;5.40;;;2.75;;
25915;SDS011;13719;48.188;11.618;2023-02-28T11:55:19;4.10;;;2.15;;
25915;SDS011;13719;48.188;11.618;2023-02-28T11:57:55;3.85;;;1.75;;
25915;SDS011;13719;48.188;11.618;2023-02-28T12:00:28;1.55;;;1.13;;
25915;SDS011;13719;48.188;11.618;2023-02-28T12:03:02;2.60;;;2.28;;
25915;SDS011;13719;48.188;11.618;2023-02-28T12:05:34;4.82;;;2.05;;
25915;SDS011;13719;48.188;11.618;2023-02-28T12:08:06;1.92;;;1.27;;
25915;SDS011;13719;48.188;11.618;2023-02-28T12:10:42;3.22;;;2.05;;
25915;SDS011;13719;48.188;11.618;2023-02-28T12:13:15;3.92;;;2.40;;
25915;SDS011;13719;48.188;11.618;2023-02-28T12:15:54;2.10;;;1.55;;
25915;SDS011;13719;48.188;11.618;2023-02-28T12:18:34;4.82;;;1.60;;
25915;SDS011;13719;48.188;11.618;2023-02-28T12:21:09;3.60;;;2.60;;
25915;SDS011;13719;48.188;11.618;2023-02-28T12:23:45;4.00;;;2.17;;
25915;SDS011;13719;48.188;11.618;2023-02-28T12:26:16;2.55;;;1.50;;
25915;SDS011;13719;48.188;11.618;2023-02-28T12:28:48;6.88;;;1.73;;
25915;SDS011;13719;48.188;11.618;2023-02-28T12:31:18;1.58;;;1.48;;
25915;SDS011;13719;48.188;11.618;2023-02-28T12:33:50;5.00;;;2.03;;
25915;SDS011;13719;48.188;11.618;2023-02-28T12:36:19;7.95;;;1.88;;
25915;SDS011;13719;48.188;11.618;2023-02-28T12:38:51;3.72;;;1.42;;
25915;SDS011;13719;48.188;11.618;2023-02-28T12:41:23;5.50;;;2.25;;
25915;SDS011;13719;48.188;11.618;2023-02-28T12:43:55;12.32;;;3.08;;
25915;SDS011;13719;48.188;11.618;2023-02-28T12:46:27;1.80;;;1.67;;
25915;SDS011;13719;48.188;11.618;2023-02-28T12:48:59;3.75;;;2.60;;
25915;SDS011;13719;48.188;11.618;2023-02-28T12:51:28;1.80;;;1.30;;
25915;SDS011;13719;48.188;11.618;2023-02-28T12:53:59;4.60;;;2.30;;
25915;SDS011;13719;48.188;11.618;2023-02-28T12:56:33;5.63;;;1.70;;
25915;SDS011;13719;48.188;11.618;2023-02-28T12:59:03;4.32;;;1.65;;
25915;SDS011;13719;48.188;11.618;2023-02-28T13:01:42;6.68;;;2.35;;
25915;SDS011;13719;48.188;11.618;2023-02-28T13:07:22;1.92;;;1.75;;
25915;SDS011;13719;48.188;11.618;2023-02-28T13:09:55;2.20;;;1.65;;
25915;SDS011;13719;48.188;11.618;2023-02-28T13:12:25;1.30;;;1.20;;
25915;SDS011;13719;48.188;11.618;2023-02-28T13:15:01;3.65;;;1.92;;
25915;SDS011;13719;48.188;11.618;2023-02-28T13:17:30;3.05;;;2.25;;
25915;SDS011;13719;48.188;11.618;2023-02-28T13:20:00;5.85;;;2.13;;
25915;SDS011;13719;48.188;11.618;2023-02-28T13:22:38;4.18;;;2.80;;
25915;SDS011;13719;48.188;11.618;2023-02-28T13:27:54;5.65;;;1.83;;
25915;SDS011;13719;48.188;11.618;2023-02-28T13:33:24;4.05;;;2.08;;
25915;SDS011;13719;48.188;11.618;2023-02-28T13:36:09;4.05;;;2.17;;
25915;SDS011;13719;48.188;11.618;2023-02-28T13:38:40;2.22;;;1.70;;
25915;SDS011;13719;48.188;11.618;2023-02-28T13:44:05;1.58;;;1.48;;
25915;SDS011;13719;48.188;11.618;2023-02-28T13:46:35;4.28;;;2.85;;
25915;SDS011;13719;48.188;11.618;2023-02-28T13:49:19;2.85;;;2.33;;
25915;SDS011;13719;48.188;11.618;2023-02-28T13:51:48;2.63;;;2.00;;
25915;SDS011;13719;48.188;11.618;2023-02-28T13:54:25;4.15;;;1.85;;
25915;SDS011;13719;48.188;11.618;2023-02-28T13:57:03;3.40;;;2.30;;
25915;SDS011;13719;48.188;11.618;2023-02-28T13:59:35;4.22;;;2.53;;
25915;SDS011;13719;48.188;11.618;2023-02-28T14:02:25;4.88;;;2.00;;
25915;SDS011;13719;48.188;11.618;2023-02-28T14:05:01;3.20;;;1.65;;
25915;SDS011;13719;48.188;11.618;2023-02-28T14:07:30;1.52;;;1.13;;
25915;SDS011;13719;48.188;11.618;2023-02-28T14:10:04;0.73;;;0.73;;
25915;SDS011;13719;48.188;11.618;2023-02-28T14:12:54;8.48;;;3.15;;
25915;SDS011;13719;48.188;11.618;2023-02-28T14:18:15;5.47;;;2.25;;
25915;SDS011;13719;48.188;11.618;2023-02-28T14:20:44;6.88;;;2.17;;
25915;SDS011;13719;48.188;11.618;2023-02-28T14:23:16;4.38;;;2.50;;
25915;SDS011;13719;48.188;11.618;2023-02-28T14:25:51;3.47;;;2.20;;
25915;SDS011;13719;48.188;11.618;2023-02-28T14:28:23;4.28;;;2.47;;
25915;SDS011;13719;48.188;11.618;2023-02-28T14:31:00;5.13;;;2.38;;
25915;SDS011;13719;48.188;11.618;2023-02-28T14:33:42;4.45;;;1.83;;
25915;SDS011;13719;48.188;11.618;2023-02-28T14:36:17;3.85;;;2.38;;
25915;SDS011;13719;48.188;11.618;2023-02-28T14:38:47;1.25;;;1.10;;
25915;SDS011;13719;48.188;11.618;2023-02-28T14:41:24;6.38;;;2.90;;
25915;SDS011;13719;48.188;11.618;2023-02-28T14:43:57;4.85;;;1.75;;
25915;SDS011;13719;48.188;11.618;2023-02-28T14:46:26;4.25;;;1.90;;
25915;SDS011;13719;48.188;11.618;2023-02-28T14:48:56;2.50;;;2.30;;
25915;SDS011;13719;48.188;11.618;2023-02-28T14:51:25;4.30;;;2.33;;
25915;SDS011;13719;48.188;11.618;2023-02-28T14:53:56;1.92;;;1.42;;
25915;SDS011;13719;48.188;11.618;2023-02-28T14:56:27;7.38;;;3.35;;
25915;SDS011;13719;48.188;11.618;2023-02-28T14:58:58;6.90;;;3.10;;
25915;SDS011;13719;48.188;11.618;2023-02-28T15:01:27;6.13;;;2.58;;
25915;SDS011;13719;48.188;11.618;2023-02-28T15:04:00;7.38;;;2.22;;
25915;SDS011;13719;48.188;11.618;2023-02-28T15:06:29;8.15;;;1.73;;
25915;SDS011;13719;48.188;11.618;2023-02-28T15:09:08;3.20;;;2.45;;
25915;SDS011;13719;48.188;11.618;2023-02-28T15:11:38;2.50;;;1.75;;
25915;SDS011;13719;48.188;11.618;2023-02-28T15:14:12;6.00;;;1.83;;
25915;SDS011;13719;48.188;11.618;2023-02-28T15:16:42;4.47;;;2.25;;
25915;SDS011;13719;48.188;11.618;2023-02-28T15:19:13;2.63;;;0.98;;
25915;SDS011;13719;48.188;11.618;2023-02-28T15:21:43;3.72;;;2.17;;
25915;SDS011;13719;48.188;11.618;2023-02-28T15:24:13;2.95;;;1.83;;